Time;durP1;ratioP1;P1;durP2;ratioP2;P2;SDS_P1;SDS_P2;PMS_P1;PMS_P2;Temp;Humidity;BMP_temperature;BMP_pressure;BME280_temperature;BME280_humidity;BME280_pressure;Samples;Min_cycle;Max_cycle;Signal;HPM_P1;HPM_P2
2022/07/06 00:01:06;;;;;;;4.70;1.10;;;;;;;15.53;75.04;102236.66;4975205;28;20181;-71
2022/07/06 00:03:32;;;;;;;2.27;1.00;;;;;;;15.46;75.98;102237.38;4982705;28;20196;-71
2022/07/06 00:05:57;;;;;;;3.17;1.40;;;;;;;15.40;75.74;102242.41;4951612;28;20213;-71
2022/07/06 00:08:23;;;;;;;3.80;1.10;;;;;;;15.36;76.24;102243.16;4951666;29;20774;-71
2022/07/06 00:10:48;;;;;;;3.40;1.10;;;;;;;15.35;76.19;102242.31;4950041;29;20617;-71
2022/07/06 00:13:14;;;;;;;6.77;1.50;;;;;;;15.35;75.86;102236.25;4951755;29;20219;-71
2022/07/06 00:15:39;;;;;;;2.43;0.90;;;;;;;15.30;76.18;102235.25;4951663;29;20189;-71
2022/07/06 00:18:05;;;;;;;3.13;1.50;;;;;;;15.26;76.57;102241.19;4951567;29;20304;-71
2022/07/06 00:20:30;;;;;;;2.93;1.23;;;;;;;15.31;76.18;102237.00;4951658;29;20193;-71
2022/07/06 00:22:55;;;;;;;2.00;1.13;;;;;;;15.31;75.98;102244.75;4951253;29;20188;-71
2022/07/06 00:25:21;;;;;;;3.17;1.30;;;;;;;15.30;76.70;102241.31;4951826;29;20209;-71
2022/07/06 00:27:46;;;;;;;3.43;1.23;;;;;;;15.30;76.48;102243.00;4951212;29;20201;-72
2022/07/06 00:30:12;;;;;;;3.93;1.40;;;;;;;15.32;77.05;102242.19;4982593;28;20869;-71
2022/07/06 00:32:37;;;;;;;3.07;1.47;;;;;;;15.30;77.34;102240.41;4950999;29;20189;-71
2022/07/06 00:35:04;;;;;;;3.43;1.70;;;;;;;15.31;77.73;102242.16;4951701;29;20204;-71
2022/07/06 00:37:30;;;;;;;3.90;1.33;;;;;;;15.30;77.60;102237.84;4951196;28;20220;-72
2022/07/06 00:39:55;;;;;;;3.93;1.40;;;;;;;15.30;77.74;102243.88;4951439;29;20185;-72
2022/07/06 00:42:21;;;;;;;6.93;1.93;;;;;;;15.28;77.67;102242.97;4951231;29;20189;-72
2022/07/06 00:44:46;;;;;;;4.50;1.50;;;;;;;15.25;77.47;102242.03;4950938;29;20212;-71
2022/07/06 00:47:12;;;;;;;3.40;1.60;;;;;;;15.24;77.84;102235.13;4966142;28;20216;-71
2022/07/06 00:52:22;;;;;;;4.33;1.33;;;;;;;15.24;78.21;102241.16;4950035;29;20245;-71
2022/07/06 00:54:47;;;;;;;3.93;1.40;;;;;;;15.22;78.44;102242.84;4950725;28;20201;-71
2022/07/06 00:57:13;;;;;;;7.13;2.23;;;;;;;15.20;78.91;102238.47;4950002;29;20216;-71
2022/07/06 00:59:38;;;;;;;3.67;1.67;;;;;;;15.19;78.50;102237.59;4951399;29;20220;-71
2022/07/06 01:02:04;;;;;;;5.23;1.60;;;;;;;15.19;78.49;102235.00;4949280;29;20196;-71
2022/07/06 01:04:29;;;;;;;3.60;1.33;;;;;;;15.19;78.75;102242.75;4982213;28;20197;-71
2022/07/06 01:06:57;;;;;;;7.67;1.77;;;;;;;15.20;78.64;102236.75;4965325;28;20574;-71
2022/07/06 01:09:22;;;;;;;3.20;1.63;;;;;;;15.18;78.58;102240.13;4951530;28;20189;-71
2022/07/06 01:11:48;;;;;;;2.57;1.17;;;;;;;15.15;78.97;102235.78;4953101;29;20196;-71
2022/07/06 01:14:15;;;;;;;2.67;1.43;;;;;;;15.14;79.18;102238.34;4986420;28;20197;-71
2022/07/06 01:16:40;;;;;;;5.80;1.70;;;;;;;15.16;78.76;102241.81;4953049;29;20185;-71
2022/07/06 01:19:06;;;;;;;3.20;1.67;;;;;;;15.16;79.18;102239.25;4985667;28;20177;-70
2022/07/06 01:21:31;;;;;;;3.33;1.70;;;;;;;15.14;79.63;102236.63;4953838;29;20293;-71
2022/07/06 01:23:57;;;;;;;5.57;2.10;;;;;;;15.15;79.75;102235.78;4953043;29;20200;-70
2022/07/06 01:26:22;;;;;;;4.30;1.80;;;;;;;15.15;78.98;102240.94;4953797;29;20307;-71
2022/07/06 01:28:50;;;;;;;4.87;1.53;;;;;;;15.14;79.17;102230.59;4954500;28;20216;-71
2022/07/06 01:31:24;;;;;;;4.37;1.50;;;;;;;15.15;79.36;102228.03;4954869;28;20197;-71
2022/07/06 01:33:52;;;;;;;5.87;1.70;;;;;;;15.11;79.91;102228.78;4952977;29;20189;-71
2022/07/06 01:36:18;;;;;;;3.63;1.60;;;;;;;15.10;79.47;102229.63;4953516;29;20244;-71
2022/07/06 01:38:47;;;;;;;3.47;1.53;;;;;;;15.10;79.10;102227.06;4954634;28;20216;-71
2022/07/06 01:41:13;;;;;;;3.93;1.50;;;;;;;15.10;78.81;102224.47;4954082;28;20201;-70
2022/07/06 01:43:39;;;;;;;8.33;1.90;;;;;;;15.11;79.70;102225.34;4954302;28;20212;-72
2022/07/06 01:46:05;;;;;;;4.37;1.50;;;;;;;15.11;79.94;102225.34;4952757;29;20220;-71
2022/07/06 01:48:31;;;;;;;3.53;1.50;;;;;;;15.11;79.64;102223.63;4953202;28;20204;-71
2022/07/06 01:50:56;;;;;;;4.97;1.60;;;;;;;15.09;79.48;102215.00;4985616;28;20304;-70
2022/07/06 01:53:23;;;;;;;5.60;1.70;;;;;;;15.12;79.33;102222.81;4954751;28;20710;-70
2022/07/06 01:55:49;;;;;;;3.53;1.57;;;;;;;15.09;79.47;102221.84;4952970;29;20197;-71
2022/07/06 01:58:14;;;;;;;6.37;1.67;;;;;;;15.08;79.21;102221.00;4984755;28;20231;-71
2022/07/06 02:00:40;;;;;;;4.87;1.87;;;;;;;15.08;79.36;102226.16;4953018;29;20624;-71
2022/07/06 02:03:05;;;;;;;3.70;1.80;;;;;;;15.07;80.05;102228.69;4952223;29;20185;-71
2022/07/06 02:05:33;;;;;;;6.90;2.00;;;;;;;15.05;80.01;102220.91;4954325;28;20205;-71
2022/07/06 02:07:58;;;;;;;6.40;1.50;;;;;;;15.07;79.81;102223.53;4952498;29;20356;-71
2022/07/06 02:10:23;;;;;;;5.07;1.70;;;;;;;15.08;79.88;102222.69;4969007;28;20251;-71
2022/07/06 02:12:49;;;;;;;6.63;2.00;;;;;;;15.08;80.40;102225.28;4968798;28;20181;-71
2022/07/06 02:15:15;;;;;;;3.07;1.63;;;;;;;15.09;80.09;102224.44;4984507;28;20193;-70
2022/07/06 02:17:41;;;;;;;3.77;2.00;;;;;;;15.10;79.62;102231.38;4952280;29;20209;-71
2022/07/06 02:20:07;;;;;;;3.47;1.60;;;;;;;15.08;79.83;102233.00;4953376;28;20201;-71
2022/07/06 02:22:33;;;;;;;3.57;1.43;;;;;;;15.07;80.19;102228.69;4953052;28;20193;-71
2022/07/06 02:24:59;;;;;;;5.40;1.80;;;;;;;15.05;79.69;102236.41;4952003;29;20670;-71
2022/07/06 02:27:25;;;;;;;3.60;1.73;;;;;;;15.03;80.11;102227.75;4952663;29;20212;-71
2022/07/06 02:29:51;;;;;;;5.03;1.47;;;;;;;15.01;80.88;102229.41;4952445;29;20662;-71
2022/07/06 02:32:17;;;;;;;3.77;1.63;;;;;;;15.00;80.68;102231.97;4984032;28;20195;-70
2022/07/06 02:34:43;;;;;;;4.83;1.60;;;;;;;15.01;80.68;102233.72;4952236;29;20578;-72
2022/07/06 02:37:09;;;;;;;5.20;2.07;;;;;;;15.00;81.06;102230.25;4967518;28;20209;-70
2022/07/06 02:39:34;;;;;;;4.90;1.83;;;;;;;15.01;80.71;102223.41;4952494;29;20196;-71
2022/07/06 02:42:00;;;;;;;4.80;1.60;;;;;;;15.00;80.62;102222.53;4951728;29;20204;-71
2022/07/06 02:44:26;;;;;;;6.80;1.90;;;;;;;15.02;80.94;102222.56;4984711;28;20260;-70
2022/07/06 02:46:52;;;;;;;5.87;1.70;;;;;;;14.99;81.28;102227.63;4984300;28;20217;-71
2022/07/06 02:49:18;;;;;;;5.57;2.10;;;;;;;14.99;81.28;102223.38;4936025;29;20557;-71
2022/07/06 02:51:43;;;;;;;5.07;1.90;;;;;;;14.96;81.30;102225.84;4984302;28;20196;-71
2022/07/06 02:54:09;;;;;;;4.40;1.73;;;;;;;14.99;81.46;102228.53;4948396;28;20533;-71
2022/07/06 02:56:35;;;;;;;4.53;1.50;;;;;;;14.99;81.49;102223.38;4984271;28;20599;-71
2022/07/06 02:59:00;;;;;;;3.17;1.63;;;;;;;14.98;81.28;102229.38;4983480;28;20375;-71
2022/07/06 03:01:26;;;;;;;4.87;1.53;;;;;;;14.99;81.38;102228.53;4952162;29;20189;-71
2022/07/06 03:03:51;;;;;;;5.10;1.57;;;;;;;14.98;81.50;102229.38;4952652;28;20280;-71
2022/07/06 03:06:17;;;;;;;5.97;1.80;;;;;;;14.99;81.25;102232.81;4983940;28;20220;-71
2022/07/06 03:08:43;;;;;;;7.37;1.60;;;;;;;14.97;81.10;102232.75;4951704;29;20232;-71
2022/07/06 03:11:09;;;;;;;5.47;1.53;;;;;;;14.98;80.81;102237.09;4967366;28;20707;-71
2022/07/06 03:13:35;;;;;;;3.40;1.50;;;;;;;14.95;82.34;102234.44;4951682;29;20193;-70
2022/07/06 03:16:00;;;;;;;5.97;2.07;;;;;;;14.96;82.00;102233.59;4951186;29;20685;-71
2022/07/06 03:18:27;;;;;;;6.77;1.87;;;;;;;14.95;81.86;102237.03;4983777;28;20217;-71
2022/07/06 03:20:53;;;;;;;9.17;2.23;;;;;;;14.96;80.91;102241.34;4950907;29;20200;-71
2022/07/06 03:23:20;;;;;;;5.63;2.00;;;;;;;14.99;81.07;102241.41;4951325;29;20289;-70
2022/07/06 03:25:46;;;;;;;5.80;1.90;;;;;;;15.01;81.54;102242.31;4951466;29;20213;-71
2022/07/06 03:28:11;;;;;;;6.23;1.67;;;;;;;15.02;81.48;102241.50;4952255;28;20248;-71
2022/07/06 03:30:37;;;;;;;5.03;1.70;;;;;;;14.98;80.93;102243.97;4984142;28;20200;-70
2022/07/06 03:33:02;;;;;;;5.77;1.80;;;;;;;15.01;80.91;102238.88;4946356;28;20277;-71
2022/07/06 03:35:29;;;;;;;4.70;1.80;;;;;;;15.01;81.34;102242.31;4976105;28;20189;-71
2022/07/06 03:37:55;;;;;;;3.97;2.03;;;;;;;15.04;81.22;102247.56;4950859;29;20284;-70
2022/07/06 03:40:23;;;;;;;4.80;2.00;;;;;;;15.03;80.61;102240.66;4951268;29;20655;-71
2022/07/06 03:42:50;;;;;;;6.33;2.30;;;;;;;14.98;80.77;102237.09;4951130;29;20248;-71
2022/07/06 03:45:16;;;;;;;6.50;2.37;;;;;;;14.96;81.20;102235.31;4952221;28;20551;-71
2022/07/06 03:47:41;;;;;;;4.90;1.73;;;;;;;14.97;81.11;102237.06;4952735;28;20242;-71
2022/07/06 03:50:08;;;;;;;3.60;1.73;;;;;;;14.98;81.79;102237.09;4950837;29;20272;-73
2022/07/06 03:52:39;;;;;;;6.73;2.13;;;;;;;15.06;81.73;102239.88;4951218;29;20271;-72
2022/07/06 03:55:11;;;;;;;3.60;1.80;;;;;;;15.10;82.07;102246.84;5001460;23;20595;-77
2022/07/06 03:57:40;;;;;;;3.07;1.40;;;;;;;15.10;81.69;102242.53;4988358;28;20215;-78
2022/07/06 04:00:09;;;;;;;7.93;1.70;;;;;;;15.10;80.82;102242.53;4971146;28;20242;-78
2022/07/06 04:02:40;;;;;;;4.20;1.80;;;;;;;15.12;81.13;102242.56;4986111;28;20220;-76
2022/07/06 04:05:07;;;;;;;4.87;1.80;;;;;;;15.12;80.97;102238.31;4955365;28;20235;-78
2022/07/06 04:07:33;;;;;;;5.90;1.80;;;;;;;15.11;80.53;102238.25;4986438;28;20858;-78
2022/07/06 04:09:58;;;;;;;2.43;1.30;;;;;;;15.09;80.23;102239.91;4971074;28;20301;-78
2022/07/06 04:12:24;;;;;;;8.97;1.77;;;;;;;15.10;79.86;102228.78;4954090;28;20219;-78
2022/07/06 04:14:49;;;;;;;6.07;1.80;;;;;;;15.13;79.80;102239.16;4972370;28;20267;-78
2022/07/06 04:19:59;;;;;;;7.73;1.90;;;;;;;15.18;79.82;102235.84;4971686;28;20192;-77
2022/07/06 04:22:26;;;;;;;4.80;1.50;;;;;;;15.24;79.15;102232.56;4971402;28;20563;-76
2022/07/06 04:24:52;;;;;;;3.90;1.60;;;;;;;15.26;79.63;102234.31;4972884;28;20183;-79
2022/07/06 04:27:17;;;;;;;5.37;1.80;;;;;;;15.26;79.65;102234.31;4971079;28;20644;-77
2022/07/06 04:29:43;;;;;;;6.47;1.70;;;;;;;15.29;78.99;102238.69;4972021;28;20308;-77
2022/07/06 04:32:08;;;;;;;3.70;1.57;;;;;;;15.34;78.90;102237.97;4971563;28;20196;-75
2022/07/06 04:34:34;;;;;;;5.70;1.87;;;;;;;15.33;79.26;102238.78;4974471;28;20246;-77
2022/07/06 04:37:00;;;;;;;4.50;1.63;;;;;;;15.35;78.84;102246.59;4975866;28;20339;-76
2022/07/06 04:39:27;;;;;;;6.30;1.70;;;;;;;15.37;78.97;102248.38;4989611;28;20193;-77
2022/07/06 04:41:53;;;;;;;4.60;1.60;;;;;;;15.35;78.72;102246.59;4990692;28;20177;-77
2022/07/06 04:44:19;;;;;;;3.90;1.50;;;;;;;15.37;79.15;102255.25;4970780;28;20216;-78
2022/07/06 04:46:45;;;;;;;5.77;1.93;;;;;;;15.37;79.29;102255.25;4971045;28;20696;-78
2022/07/06 04:49:10;;;;;;;6.13;1.67;;;;;;;15.38;78.74;102255.25;4973320;28;20199;-78
2022/07/06 04:51:36;;;;;;;3.63;1.50;;;;;;;15.39;79.23;102257.03;4954493;28;20612;-77
2022/07/06 04:54:05;;;;;;;3.67;1.37;;;;;;;15.37;78.66;102240.63;4957416;28;20282;-78
2022/07/06 04:56:31;;;;;;;4.97;1.33;;;;;;;15.41;78.53;102232.13;4974011;28;20175;-79
2022/07/06 04:58:57;;;;;;;3.17;1.20;;;;;;;15.46;78.36;102238.25;4978403;28;20191;-78
2022/07/06 05:01:23;;;;;;;4.97;1.30;;;;;;;15.45;78.33;102235.63;4974413;28;20271;-78
2022/07/06 05:03:49;;;;;;;4.27;1.30;;;;;;;15.52;77.66;102237.53;4989423;28;20190;-75
2022/07/06 05:06:19;;;;;;;3.87;1.23;;;;;;;15.46;77.39;102240.81;4991086;28;20689;-76
2022/07/06 05:08:45;;;;;;;4.53;1.00;;;;;;;15.57;77.49;102247.09;4981089;28;20207;-77
2022/07/06 05:11:11;;;;;;;5.53;1.63;;;;;;;15.56;77.25;102245.34;4973474;28;20246;-78
2022/07/06 05:13:37;;;;;;;2.97;1.43;;;;;;;15.67;77.12;102243.00;4987593;28;20690;-77
2022/07/06 05:16:02;;;;;;;2.97;1.17;;;;;;;15.70;77.76;102249.09;4974123;28;20191;-78
2022/07/06 05:18:30;;;;;;;5.40;1.50;;;;;;;15.72;77.43;102251.72;4989606;28;20204;-78
2022/07/06 05:20:55;;;;;;;3.93;1.30;;;;;;;15.65;77.20;102252.44;4972435;28;20192;-78
2022/07/06 05:23:21;;;;;;;5.13;1.30;;;;;;;15.71;76.95;102249.97;4988978;28;20629;-75
2022/07/06 05:25:46;;;;;;;5.00;1.37;;;;;;;15.76;77.20;102256.13;4989633;28;20212;-78
2022/07/06 05:28:12;;;;;;;3.60;1.20;;;;;;;15.76;77.28;102246.66;4989856;28;20871;-78
2022/07/06 05:30:37;;;;;;;5.30;1.40;;;;;;;15.85;76.67;102249.44;4989763;28;20199;-77
2022/07/06 05:33:03;;;;;;;5.77;1.70;;;;;;;15.94;75.68;102252.19;4990264;28;20732;-78
2022/07/06 05:35:29;;;;;;;3.63;1.13;;;;;;;15.93;75.53;102252.19;4973884;28;20186;-78
2022/07/06 05:37:55;;;;;;;5.93;1.60;;;;;;;15.95;76.15;102248.78;4989326;28;20684;-77
2022/07/06 05:40:21;;;;;;;7.53;1.57;;;;;;;16.08;75.14;102255.06;4991737;28;20187;-78
2022/07/06 05:42:47;;;;;;;2.83;1.40;;;;;;;16.07;74.78;102254.16;4975173;28;20180;-77
2022/07/06 05:45:14;;;;;;;6.20;1.63;;;;;;;16.06;75.25;102249.84;4990433;28;20192;-78
2022/07/06 05:50:24;;;;;;;4.43;1.53;;;;;;;15.99;76.04;102253.16;4989745;28;20263;-79
2022/07/06 05:53:02;;;;;;;3.50;1.33;;;;;;;16.11;75.48;102249.97;4991268;28;20174;-79
2022/07/06 05:55:29;;;;;;;5.47;1.30;;;;;;;16.13;74.40;102245.69;4989906;28;20214;-79
2022/07/06 05:57:56;;;;;;;3.83;1.20;;;;;;;16.10;74.50;102246.50;4992175;28;20196;-79
2022/07/06 06:00:26;;;;;;;4.10;1.10;;;;;;;16.14;74.05;102245.72;4992869;28;20188;-77
2022/07/06 06:02:54;;;;;;;3.97;1.27;;;;;;;16.20;73.85;102243.22;4993418;28;20731;-78
2022/07/06 06:05:20;;;;;;;5.00;1.47;;;;;;;16.28;74.06;102248.53;4994627;28;20279;-78
2022/07/06 06:07:49;;;;;;;4.37;1.20;;;;;;;16.21;74.55;102254.47;4992851;28;20208;-78
2022/07/06 06:10:15;;;;;;;6.63;1.63;;;;;;;16.36;74.06;102253.03;4976686;28;20196;-77
2022/07/06 06:12:43;;;;;;;3.57;1.57;;;;;;;16.45;73.40;102248.06;4977281;28;20759;-78
2022/07/06 06:15:09;;;;;;;3.23;1.20;;;;;;;16.49;72.57;102252.41;4993307;28;20676;-78
2022/07/06 06:17:36;;;;;;;3.83;1.60;;;;;;;16.64;72.41;102254.41;4992836;28;20215;-77
2022/07/06 06:20:07;;;;;;;3.53;1.50;;;;;;;16.64;71.47;102257.00;4975504;28;20176;-78
2022/07/06 06:22:46;;;;;;;6.53;1.60;;;;;;;16.65;72.06;102259.63;4992946;28;20823;-79
2022/07/06 06:25:13;;;;;;;5.03;1.53;;;;;;;16.69;71.65;102255.38;4993585;28;20214;-78
2022/07/06 06:27:39;;;;;;;4.67;1.30;;;;;;;16.78;71.59;102260.69;4992300;28;20303;-77
2022/07/06 06:30:05;;;;;;;4.40;0.93;;;;;;;16.84;71.64;102253.03;4978294;28;20443;-77
2022/07/06 06:32:30;;;;;;;8.07;1.57;;;;;;;16.94;71.74;102254.94;4994907;28;20219;-77
2022/07/06 06:34:56;;;;;;;5.50;1.00;;;;;;;16.93;71.17;102254.06;4977038;28;20610;-79
2022/07/06 06:37:21;;;;;;;5.07;1.33;;;;;;;17.01;70.37;102254.19;4992332;28;20743;-79
2022/07/06 06:39:46;;;;;;;4.47;1.30;;;;;;;16.98;70.82;102254.13;4975933;28;20542;-79
2022/07/06 06:42:12;;;;;;;2.77;1.10;;;;;;;17.08;70.97;102264.66;4993491;28;20218;-76
2022/07/06 06:44:40;;;;;;;4.33;1.33;;;;;;;16.98;69.67;102260.19;4992447;28;20250;-77
2022/07/06 06:47:06;;;;;;;2.23;0.93;;;;;;;16.98;68.99;102262.78;4993639;28;20215;-77
2022/07/06 06:49:31;;;;;;;4.70;0.97;;;;;;;16.99;70.24;102266.25;4992508;28;20195;-77
2022/07/06 06:51:57;;;;;;;5.43;1.57;;;;;;;16.99;69.72;102263.66;4993198;28;20176;-77
2022/07/06 06:54:22;;;;;;;3.33;1.10;;;;;;;16.85;69.38;102268.59;4992224;28;20287;-77
2022/07/06 06:56:48;;;;;;;5.37;1.50;;;;;;;16.82;71.02;102280.59;4992969;28;20599;-77
2022/07/06 06:59:13;;;;;;;3.80;1.27;;;;;;;16.78;72.70;102286.56;4994797;28;20196;-77
2022/07/06 07:01:38;;;;;;;4.40;1.17;;;;;;;16.68;73.23;102280.38;4992125;28;20204;-77
2022/07/06 07:04:05;;;;;;;2.53;1.37;;;;;;;16.61;72.79;102285.41;4976085;28;20192;-78
2022/07/06 07:06:31;;;;;;;6.80;1.00;;;;;;;16.70;72.22;102280.38;4991604;28;20235;-77
2022/07/06 07:08:57;;;;;;;5.50;1.07;;;;;;;16.78;71.43;102278.81;4994031;28;20609;-78
2022/07/06 07:11:22;;;;;;;4.37;1.00;;;;;;;16.91;70.87;102276.44;4993254;28;20202;-77
2022/07/06 07:13:48;;;;;;;5.10;1.20;;;;;;;17.05;70.03;102274.97;4992792;28;20184;-77
2022/07/06 07:16:14;;;;;;;3.53;1.10;;;;;;;17.16;70.07;102285.47;4977437;28;20222;-76
2022/07/06 07:18:39;;;;;;;3.27;1.13;;;;;;;17.24;69.20;102284.78;4992394;28;20215;-77
2022/07/06 07:21:04;;;;;;;4.67;1.80;;;;;;;17.30;68.35;102282.28;4993303;28;20192;-77
2022/07/06 07:23:30;;;;;;;2.93;1.00;;;;;;;17.47;67.86;102279.97;4992318;28;20702;-77
2022/07/06 07:25:55;;;;;;;3.93;1.37;;;;;;;17.59;68.02;102291.34;4994447;28;20299;-76
2022/07/06 07:28:21;;;;;;;3.70;1.20;;;;;;;17.75;66.96;102285.56;4977067;28;20294;-77
2022/07/06 07:30:46;;;;;;;4.00;1.10;;;;;;;17.77;66.91;102289.03;4977491;28;20196;-76
2022/07/06 07:33:12;;;;;;;4.43;1.13;;;;;;;17.84;66.27;102287.38;4993243;28;20218;-77
2022/07/06 07:35:38;;;;;;;4.17;1.20;;;;;;;17.96;65.91;102288.41;4994720;28;20187;-77
2022/07/06 07:38:03;;;;;;;3.93;1.27;;;;;;;17.83;64.85;102286.50;4994999;28;20204;-77
2022/07/06 07:40:29;;;;;;;3.07;1.00;;;;;;;17.92;66.28;102286.63;4993592;28;20195;-77
2022/07/06 07:42:55;;;;;;;2.27;1.00;;;;;;;18.09;64.21;102289.41;4977235;28;20649;-77
2022/07/06 07:45:20;;;;;;;3.67;1.13;;;;;;;18.23;64.67;102283.56;4993897;28;20199;-77
2022/07/06 07:47:46;;;;;;;3.93;1.20;;;;;;;18.31;64.17;102292.28;4995250;28;20208;-76
2022/07/06 07:50:12;;;;;;;4.33;1.10;;;;;;;18.16;64.95;102291.25;4993835;28;20184;-77
2022/07/06 07:52:38;;;;;;;4.27;1.13;;;;;;;18.08;65.93;102287.69;4993558;28;20387;-77
2022/07/06 07:55:04;;;;;;;3.67;0.97;;;;;;;17.96;66.42;102293.59;4996447;28;20191;-77
2022/07/06 07:57:30;;;;;;;3.20;1.10;;;;;;;18.10;66.68;102297.22;4994275;28;20316;-77
2022/07/06 07:59:55;;;;;;;5.83;1.30;;;;;;;18.06;66.28;102287.66;4995695;28;20192;-77
2022/07/06 08:02:20;;;;;;;3.23;1.50;;;;;;;18.24;64.24;102284.44;4991432;28;20191;-78
2022/07/06 08:04:46;;;;;;;4.03;0.97;;;;;;;18.32;64.36;102280.19;4992688;28;20220;-77
2022/07/06 08:07:11;;;;;;;4.40;1.20;;;;;;;18.22;64.56;102293.91;4992440;28;20214;-77
2022/07/06 08:09:37;;;;;;;4.97;1.17;;;;;;;17.97;65.88;102289.28;4991912;28;20207;-78
2022/07/06 08:12:03;;;;;;;4.33;1.10;;;;;;;17.89;65.22;102298.69;4976076;28;20188;-77
2022/07/06 08:14:28;;;;;;;6.50;1.37;;;;;;;17.68;65.62;102295.81;4993085;28;20673;-77
2022/07/06 08:16:53;;;;;;;6.33;1.30;;;;;;;17.57;66.91;102299.97;4992708;28;20216;-77
2022/07/06 08:19:19;;;;;;;3.00;0.90;;;;;;;17.41;68.18;102296.28;4992638;28;20887;-78
2022/07/06 08:21:44;;;;;;;3.23;1.10;;;;;;;17.25;69.06;102314.09;4991738;28;20187;-77
2022/07/06 08:24:10;;;;;;;4.57;1.47;;;;;;;16.88;74.30;102314.34;4979803;28;20196;-78
2022/07/06 08:26:37;;;;;;;2.37;1.30;;;;;;;16.89;76.25;102316.09;4980419;28;20216;-78
2022/07/06 08:29:03;;;;;;;3.77;1.00;;;;;;;16.79;77.32;102311.59;4998081;28;20265;-79
2022/07/06 08:31:29;;;;;;;4.23;1.30;;;;;;;16.85;78.75;102314.31;4997252;28;20669;-79
2022/07/06 08:33:55;;;;;;;3.83;1.30;;;;;;;16.89;79.32;102311.78;4981151;28;20251;-78
2022/07/06 08:36:21;;;;;;;2.93;1.10;;;;;;;16.90;79.19;102305.75;4999351;28;20196;-77
2022/07/06 08:38:48;;;;;;;3.97;1.10;;;;;;;16.92;77.09;102304.09;4982175;28;20246;-78
2022/07/06 08:41:15;;;;;;;4.50;1.10;;;;;;;17.05;77.59;102303.44;4998290;28;20234;-79
2022/07/06 08:43:41;;;;;;;2.50;0.90;;;;;;;17.16;77.33;102303.59;4996919;28;20191;-78
2022/07/06 08:46:08;;;;;;;3.23;0.93;;;;;;;17.13;75.05;102301.84;4997906;28;20290;-79
2022/07/06 08:48:38;;;;;;;6.13;1.17;;;;;;;17.28;75.85;102303.81;4997850;28;20234;-78
2022/07/06 08:51:04;;;;;;;4.50;1.30;;;;;;;17.24;75.24;102310.66;4999002;28;20195;-77
2022/07/06 08:53:30;;;;;;;2.50;1.03;;;;;;;17.04;77.12;102308.59;4995603;28;20196;-79
2022/07/06 08:55:55;;;;;;;3.40;1.30;;;;;;;16.92;76.87;102314.44;4994701;28;20175;-80
2022/07/06 08:58:25;;;;;;;6.07;1.47;;;;;;;16.89;76.17;102319.56;4992955;28;20294;-79
2022/07/06 09:00:50;;;;;;;2.33;0.90;;;;;;;16.80;76.85;102331.47;4976541;28;20188;-79
2022/07/06 09:03:16;;;;;;;3.80;1.10;;;;;;;16.72;78.43;102325.28;4992513;28;20649;-79
2022/07/06 09:05:46;;;;;;;2.60;1.10;;;;;;;16.64;79.30;102327.72;4995270;28;20203;-80
2022/07/06 09:08:12;;;;;;;3.87;1.10;;;;;;;16.54;79.17;102319.75;4994934;28;20216;-79
2022/07/06 09:10:37;;;;;;;2.40;1.20;;;;;;;16.45;79.70;102332.53;4992691;28;20188;-79
2022/07/06 09:13:08;;;;;;;3.80;1.30;;;;;;;16.30;80.32;102337.38;4993881;28;20196;-79
2022/07/06 09:15:35;;;;;;;4.77;1.47;;;;;;;16.18;81.89;102337.09;4992758;28;20205;-79
2022/07/06 09:18:03;;;;;;;1.90;1.27;;;;;;;16.18;82.08;102339.69;4993548;28;20200;-78
2022/07/06 09:20:29;;;;;;;6.20;1.60;;;;;;;16.15;82.80;102342.19;4991962;28;20211;-80
2022/07/06 09:23:00;;;;;;;2.73;1.20;;;;;;;16.22;83.01;102347.56;4994863;28;20188;-79
2022/07/06 09:25:26;;;;;;;4.27;1.47;;;;;;;16.26;82.25;102348.47;4974708;28;20192;-79
2022/07/06 09:27:54;;;;;;;2.60;1.13;;;;;;;16.37;82.04;102349.56;4991819;28;20211;-78
2022/07/06 09:30:22;;;;;;;1.33;0.77;;;;;;;16.46;81.29;102353.25;4992611;28;20283;-79
2022/07/06 09:32:53;;;;;;;1.73;1.20;;;;;;;16.56;80.76;102359.44;4998901;28;20183;-79
2022/07/06 09:35:27;;;;;;;4.80;1.10;;;;;;;16.78;80.35;102351.25;4998046;28;20246;-79
2022/07/06 09:38:04;;;;;;;2.90;1.13;;;;;;;16.80;78.30;102347.84;4997978;28;20218;-77
2022/07/06 09:40:32;;;;;;;2.33;0.70;;;;;;;16.70;77.18;102353.72;4998333;28;20175;-79
2022/07/06 09:43:14;;;;;;;2.47;0.83;;;;;;;16.85;77.17;102343.63;4999759;28;20175;-79
2022/07/06 09:46:01;;;;;;;1.60;0.60;;;;;;;17.07;76.75;102350.03;4995470;28;20227;-78
2022/07/06 09:48:27;;;;;;;2.27;0.70;;;;;;;17.10;75.36;102351.00;4996934;28;20705;-78
2022/07/06 09:51:03;;;;;;;3.10;0.93;;;;;;;17.18;73.44;102346.78;4996985;28;20188;-79
2022/07/06 09:53:29;;;;;;;3.23;1.10;;;;;;;17.10;73.87;102344.94;4997698;28;20183;-78
2022/07/06 09:55:57;;;;;;;3.03;0.80;;;;;;;17.25;73.66;102340.00;4998716;28;20182;-79
2022/07/06 09:58:24;;;;;;;2.70;0.70;;;;;;;17.39;72.62;102344.59;4998245;28;20208;-79
2022/07/06 10:00:51;;;;;;;2.87;0.70;;;;;;;17.56;74.33;102345.75;4998885;28;20724;-79
2022/07/06 10:03:17;;;;;;;3.00;0.80;;;;;;;17.66;71.45;102341.53;4997258;28;20757;-79
2022/07/06 10:05:49;;;;;;;2.03;0.80;;;;;;;17.87;70.77;102337.53;4999612;28;20233;-77
2022/07/06 10:08:16;;;;;;;3.17;0.83;;;;;;;18.01;71.58;102338.59;4998287;28;20219;-79
2022/07/06 10:10:43;;;;;;;2.17;0.90;;;;;;;18.27;69.90;102331.13;4997309;28;20187;-79
2022/07/06 10:13:11;;;;;;;1.97;0.90;;;;;;;18.46;69.06;102334.00;4997643;28;20558;-79
2022/07/06 10:15:39;;;;;;;1.67;0.90;;;;;;;18.95;68.96;102328.47;5000297;28;20191;-80
2022/07/06 10:18:07;;;;;;;2.33;1.00;;;;;;;19.09;67.50;102332.03;4997399;28;20207;-80
2022/07/06 10:20:39;;;;;;;4.47;1.00;;;;;;;19.57;66.87;102334.19;4997043;28;20588;-79
2022/07/06 10:23:06;;;;;;;0.97;0.87;;;;;;;20.07;63.56;102323.19;4997118;28;20277;-79
2022/07/06 10:25:33;;;;;;;1.80;0.97;;;;;;;20.37;61.90;102318.16;4997702;28;20182;-80
2022/07/06 10:28:00;;;;;;;3.43;1.00;;;;;;;20.14;62.38;102327.59;4997563;28;20607;-81
2022/07/06 10:30:28;;;;;;;2.07;1.00;;;;;;;19.82;62.50;102323.06;4998163;28;20234;-80
2022/07/06 10:32:56;;;;;;;1.67;0.80;;;;;;;19.41;62.85;102327.13;4997343;28;20192;-80
2022/07/06 10:35:22;;;;;;;1.40;1.00;;;;;;;19.34;65.87;102322.75;4998956;28;20190;-78
2022/07/06 10:38:08;;;;;;;2.73;1.27;;;;;;;19.24;64.39;102324.41;4995730;28;20632;-79
2022/07/06 10:43:19;;;;;;;2.93;1.47;;;;;;;20.30;63.47;102316.38;4993779;28;20184;-80
2022/07/06 10:45:44;;;;;;;4.70;1.50;;;;;;;20.65;60.25;102317.34;4995104;28;20214;-79
2022/07/06 10:48:10;;;;;;;2.83;1.00;;;;;;;20.59;59.75;102312.09;4994470;28;20266;-78
2022/07/06 10:50:35;;;;;;;5.87;1.30;;;;;;;20.73;59.93;102304.34;4979455;28;20188;-79
2022/07/06 10:53:01;;;;;;;3.10;1.20;;;;;;;19.91;59.84;102312.72;4994484;28;20179;-80
2022/07/06 10:55:35;;;;;;;3.20;1.40;;;;;;;19.28;62.24;102301.91;4994138;28;20198;-79
2022/07/06 10:58:00;;;;;;;3.33;1.27;;;;;;;19.21;63.86;102313.09;4997478;28;20692;-78
2022/07/06 11:00:26;;;;;;;5.30;1.43;;;;;;;18.88;65.64;102295.50;4998431;28;20188;-79
2022/07/06 11:02:51;;;;;;;2.50;0.77;;;;;;;18.68;65.37;102309.13;4995232;28;21185;-77
2022/07/06 11:05:40;;;;;;;3.50;0.80;;;;;;;18.59;65.58;102309.03;4982639;28;20192;-80
2022/07/06 11:08:09;;;;;;;2.47;0.90;;;;;;;18.34;65.54;102304.47;4994403;28;20281;-79
2022/07/06 11:10:48;;;;;;;2.07;0.87;;;;;;;18.37;66.21;102299.31;4996935;28;20191;-78
2022/07/06 11:13:27;;;;;;;2.53;0.97;;;;;;;17.94;68.13;102309.97;4995623;28;20198;-80
2022/07/06 11:16:01;;;;;;;2.80;0.80;;;;;;;17.98;68.09;102312.63;4996903;28;20176;-80
2022/07/06 11:18:27;;;;;;;1.33;0.90;;;;;;;18.01;68.26;102315.25;4995717;28;20306;-80
2022/07/06 11:21:48;;;;;;;3.70;0.90;;;;;;;17.86;68.51;102322.84;4994826;28;20212;-79
2022/07/06 11:24:20;;;;;;;3.67;0.90;;;;;;;17.73;67.14;102333.03;4976405;28;20295;-79
2022/07/06 11:26:51;;;;;;;2.07;0.70;;;;;;;17.70;67.12;102340.75;4995202;28;20224;-78
2022/07/06 11:29:18;;;;;;;3.27;0.60;;;;;;;17.70;66.57;102335.56;4994872;28;20184;-77
2022/07/06 11:31:45;;;;;;;2.87;0.87;;;;;;;17.60;65.63;102336.28;4998643;28;20187;-77
2022/07/06 11:34:17;;;;;;;3.40;0.77;;;;;;;17.52;66.13;102341.34;4999627;28;20183;-78